sensor_id;sensor_type;location;lat;lon;timestamp;temperature;humidity
9425;DHT22;17139;52.140;11.636;2023-01-25T16:27:21;1.30;65.40
9425;DHT22;17139;52.140;11.636;2023-01-25T16:29:50;1.10;66.20
9425;DHT22;17139;52.140;11.636;2023-01-25T16:32:18;1.10;66.30
9425;DHT22;17139;52.140;11.636;2023-01-25T16:34:46;1.10;66.10
9425;DHT22;17139;52.140;11.636;2023-01-25T16:37:14;1.10;66.20
9425;DHT22;17139;52.140;11.636;2023-01-25T16:39:43;1.10;66.10
9425;DHT22;17139;52.140;11.636;2023-01-25T16:42:12;1.10;66.20
9425;DHT22;17139;52.140;11.636;2023-01-25T16:44:46;1.10;66.30
9425;DHT22;17139;52.140;11.636;2023-01-25T16:47:14;1.10;66.30
9425;DHT22;17139;52.140;11.636;2023-01-25T16:49:42;1.00;66.20
9425;DHT22;17139;52.140;11.636;2023-01-25T16:52:10;1.10;66.30
9425;DHT22;17139;52.140;11.636;2023-01-25T16:54:38;1.30;65.80
9425;DHT22;17139;52.140;11.636;2023-01-25T16:57:08;1.30;65.40
9425;DHT22;17139;52.140;11.636;2023-01-25T16:59:36;1.60;65.20
9425;DHT22;17139;52.140;11.636;2023-01-25T17:02:05;1.50;64.90
9425;DHT22;17139;52.140;11.636;2023-01-25T17:04:37;1.40;65.30
9425;DHT22;17139;52.140;11.636;2023-01-25T17:07:05;1.30;65.50
9425;DHT22;17139;52.140;11.636;2023-01-25T17:09:35;2.00;64.10
9425;DHT22;17139;52.140;11.636;2023-01-25T17:12:02;1.70;63.70
9425;DHT22;17139;52.140;11.636;2023-01-25T17:14:32;1.40;64.30
9425;DHT22;17139;52.140;11.636;2023-01-25T17:16:59;1.20;65.00
9425;DHT22;17139;52.140;11.636;2023-01-25T17:19:33;1.10;65.40
9425;DHT22;17139;52.140;11.636;2023-01-25T17:22:02;1.00;65.70
9425;DHT22;17139;52.140;11.636;2023-01-25T17:24:30;1.20;65.60
9425;DHT22;17139;52.140;11.636;2023-01-25T17:27:02;1.20;65.20
9425;DHT22;17139;52.140;11.636;2023-01-25T17:29:31;1.10;65.40
9425;DHT22;17139;52.140;11.636;2023-01-25T17:31:59;1.10;65.60
9425;DHT22;17139;52.140;11.636;2023-01-25T17:34:26;1.00;65.60
9425;DHT22;17139;52.140;11.636;2023-01-25T17:36:57;1.00;65.90
9425;DHT22;17139;52.140;11.636;2023-01-25T17:39:24;0.90;65.90
9425;DHT22;17139;52.140;11.636;2023-01-25T17:41:53;0.90;66.20
9425;DHT22;17139;52.140;11.636;2023-01-25T17:44:22;0.90;66.00
9425;DHT22;17139;52.140;11.636;2023-01-25T17:46:58;0.90;66.30
9425;DHT22;17139;52.140;11.636;2023-01-25T17:49:26;0.80;66.20
9425;DHT22;17139;52.140;11.636;2023-01-25T17:51:58;0.70;66.10
9425;DHT22;17139;52.140;11.636;2023-01-25T17:54:27;1.00;65.50
9425;DHT22;17139;52.140;11.636;2023-01-25T17:56:57;0.90;65.10
9425;DHT22;17139;52.140;11.636;2023-01-25T17:59:24;0.80;65.50
9425;DHT22;17139;52.140;11.636;2023-01-25T18:01:56;1.50;64.30
9425;DHT22;17139;52.140;11.636;2023-01-25T18:04:25;1.30;64.10
9425;DHT22;17139;52.140;11.636;2023-01-25T18:06:56;1.00;64.70
9425;DHT22;17139;52.140;11.636;2023-01-25T18:09:24;0.90;65.20
9425;DHT22;17139;52.140;11.636;2023-01-25T18:11:52;0.70;65.60
9425;DHT22;17139;52.140;11.636;2023-01-25T18:14:20;0.60;65.80
9425;DHT22;17139;52.140;11.636;2023-01-25T18:16:49;0.60;66.00
9425;DHT22;17139;52.140;11.636;2023-01-25T18:19:16;0.50;66.20
9425;DHT22;17139;52.140;11.636;2023-01-25T18:21:46;0.50;66.30
9425;DHT22;17139;52.140;11.636;2023-01-25T18:24:31;0.50;66.30
9425;DHT22;17139;52.140;11.636;2023-01-25T18:27:03;0.50;66.30
9425;DHT22;17139;52.140;11.636;2023-01-25T18:29:44;0.50;66.50
9425;DHT22;17139;52.140;11.636;2023-01-25T18:32:14;0.40;66.50
9425;DHT22;17139;52.140;11.636;2023-01-25T18:34:43;0.30;66.40
9425;DHT22;17139;52.140;11.636;2023-01-25T18:37:13;0.30;66.50
9425;DHT22;17139;52.140;11.636;2023-01-25T18:39:53;0.30;66.50
9425;DHT22;17139;52.140;11.636;2023-01-25T18:42:24;0.20;66.50
9425;DHT22;17139;52.140;11.636;2023-01-25T18:44:52;0.20;66.50
9425;DHT22;17139;52.140;11.636;2023-01-25T18:47:22;0.20;66.50
9425;DHT22;17139;52.140;11.636;2023-01-25T18:49:50;0.20;66.40
9425;DHT22;17139;52.140;11.636;2023-01-25T18:52:21;0.20;66.30
9425;DHT22;17139;52.140;11.636;2023-01-25T18:54:50;0.10;66.30
9425;DHT22;17139;52.140;11.636;2023-01-25T18:57:19;0.10;66.40
9425;DHT22;17139;52.140;11.636;2023-01-25T18:59:46;0.10;66.50
9425;DHT22;17139;52.140;11.636;2023-01-25T19:02:15;0.10;66.50
9425;DHT22;17139;52.140;11.636;2023-01-25T19:04:43;0.10;66.30
9425;DHT22;17139;52.140;11.636;2023-01-25T19:07:11;0.70;64.90
9425;DHT22;17139;52.140;11.636;2023-01-25T19:09:40;0.50;64.50
9425;DHT22;17139;52.140;11.636;2023-01-25T19:12:10;0.30;65.20
9425;DHT22;17139;52.140;11.636;2023-01-25T19:14:37;0.20;65.80
9425;DHT22;17139;52.140;11.636;2023-01-25T19:17:09;0.20;66.10
9425;DHT22;17139;52.140;11.636;2023-01-25T19:19:36;0.10;66.10
9425;DHT22;17139;52.140;11.636;2023-01-25T19:22:04;0.10;66.30
9425;DHT22;17139;52.140;11.636;2023-01-25T19:24:34;0.10;66.20
9425;DHT22;17139;52.140;11.636;2023-01-25T19:27:01;0.00;66.10
9425;DHT22;17139;52.140;11.636;2023-01-25T19:29:33;0.00;66.20
9425;DHT22;17139;52.140;11.636;2023-01-25T19:32:02;0.00;66.30
9425;DHT22;17139;52.140;11.636;2023-01-25T19:34:35;0.00;66.30
9425;DHT22;17139;52.140;11.636;2023-01-25T19:37:03;0.70;64.90
9425;DHT22;17139;52.140;11.636;2023-01-25T19:39:33;0.90;64.10
9425;DHT22;17139;52.140;11.636;2023-01-25T19:42:02;0.60;64.00
9425;DHT22;17139;52.140;11.636;2023-01-25T19:44:36;0.40;64.60
9425;DHT22;17139;52.140;11.636;2023-01-25T19:47:04;0.30;65.30
9425;DHT22;17139;52.140;11.636;2023-01-25T19:49:31;0.10;65.60
9425;DHT22;17139;52.140;11.636;2023-01-25T19:52:01;0.10;66.00
9425;DHT22;17139;52.140;11.636;2023-01-25T19:54:31;0.00;66.10
9425;DHT22;17139;52.140;11.636;2023-01-25T19:57:02;0.00;66.10
9425;DHT22;17139;52.140;11.636;2023-01-25T19:59:29;0.00;66.20
9425;DHT22;17139;52.140;11.636;2023-01-25T20:02:10;0.00;66.20
9425;DHT22;17139;52.140;11.636;2023-01-25T20:04:40;0.00;66.00
9425;DHT22;17139;52.140;11.636;2023-01-25T20:07:10;0.00;66.00
9425;DHT22;17139;52.140;11.636;2023-01-25T20:09:40;0.20;65.50
9425;DHT22;17139;52.140;11.636;2023-01-25T20:12:08;0.20;65.00
9425;DHT22;17139;52.140;11.636;2023-01-25T20:14:37;0.00;65.30
9425;DHT22;17139;52.140;11.636;2023-01-25T20:17:15;0.40;65.20
9425;DHT22;17139;52.140;11.636;2023-01-25T20:19:46;0.20;64.80
9425;DHT22;17139;52.140;11.636;2023-01-25T20:22:15;0.00;65.30
9425;DHT22;17139;52.140;11.636;2023-01-25T20:24:43;-0.10;65.70
9425;DHT22;17139;52.140;11.636;2023-01-25T20:27:11;-0.10;65.90
9425;DHT22;17139;52.140;11.636;2023-01-25T20:29:42;-0.20;65.90
9425;DHT22;17139;52.140;11.636;2023-01-25T20:32:16;-0.30;65.90
9425;DHT22;17139;52.140;11.636;2023-01-25T20:34:44;-0.40;65.90
9425;DHT22;17139;52.140;11.636;2023-01-25T20:37:11;-0.40;66.10
9425;DHT22;17139;52.140;11.636;2023-01-25T20:39:39;-0.40;66.10
9425;DHT22;17139;52.140;11.636;2023-01-25T20:42:08;-0.50;66.00
9425;DHT22;17139;52.140;11.636;2023-01-25T20:44:39;-0.50;66.20
9425;DHT22;17139;52.140;11.636;2023-01-25T20:47:08;-0.50;66.10
9425;DHT22;17139;52.140;11.636;2023-01-25T20:49:40;-0.10;65.40
9425;DHT22;17139;52.140;11.636;2023-01-25T20:52:07;-0.10;64.60
9425;DHT22;17139;52.140;11.636;2023-01-25T20:54:39;-0.20;64.80
9425;DHT22;17139;52.140;11.636;2023-01-25T20:57:11;-0.30;65.20
9425;DHT22;17139;52.140;11.636;2023-01-25T20:59:39;-0.40;65.50
9425;DHT22;17139;52.140;11.636;2023-01-25T21:02:08;-0.40;65.70
9425;DHT22;17139;52.140;11.636;2023-01-25T21:04:40;-0.40;65.80
9425;DHT22;17139;52.140;11.636;2023-01-25T21:07:08;-0.40;66.00
9425;DHT22;17139;52.140;11.636;2023-01-25T21:09:37;-0.40;66.00
9425;DHT22;17139;52.140;11.636;2023-01-25T21:12:06;-0.40;66.10
9425;DHT22;17139;52.140;11.636;2023-01-25T21:14:34;-0.50;66.00
9425;DHT22;17139;52.140;11.636;2023-01-25T21:17:02;-0.50;66.00
9425;DHT22;17139;52.140;11.636;2023-01-25T21:19:33;-0.50;66.10
9425;DHT22;17139;52.140;11.636;2023-01-25T21:22:02;-0.30;66.00
9425;DHT22;17139;52.140;11.636;2023-01-25T21:24:31;-0.30;65.50
9425;DHT22;17139;52.140;11.636;2023-01-25T21:27:00;-0.40;65.50
9425;DHT22;17139;52.140;11.636;2023-01-25T21:29:28;-0.50;65.70
9425;DHT22;17139;52.140;11.636;2023-01-25T21:31:56;-0.50;65.80
9425;DHT22;17139;52.140;11.636;2023-01-25T21:34:24;-0.40;66.00
9425;DHT22;17139;52.140;11.636;2023-01-25T21:36:51;-0.50;66.00
9425;DHT22;17139;52.140;11.636;2023-01-25T21:39:20;-0.50;66.10
9425;DHT22;17139;52.140;11.636;2023-01-25T21:41:48;-0.40;66.20
9425;DHT22;17139;52.140;11.636;2023-01-25T21:44:15;-0.50;66.10
9425;DHT22;17139;52.140;11.636;2023-01-25T21:46:59;-0.50;66.20
9425;DHT22;17139;52.140;11.636;2023-01-25T21:49:28;-0.50;66.20
9425;DHT22;17139;52.140;11.636;2023-01-25T21:52:13;-0.40;66.30
9425;DHT22;17139;52.140;11.636;2023-01-25T21:54:42;-0.40;66.30
9425;DHT22;17139;52.140;11.636;2023-01-25T21:57:09;-0.40;66.10
9425;DHT22;17139;52.140;11.636;2023-01-25T21:59:38;-0.30;65.90
9425;DHT22;17139;52.140;11.636;2023-01-25T22:02:07;-0.30;65.80
9425;DHT22;17139;52.140;11.636;2023-01-25T22:04:41;0.00;65.40
9425;DHT22;17139;52.140;11.636;2023-01-25T22:07:09;0.20;64.70
9425;DHT22;17139;52.140;11.636;2023-01-25T22:09:37;0.10;64.60
9425;DHT22;17139;52.140;11.636;2023-01-25T22:12:06;0.00;64.90
9425;DHT22;17139;52.140;11.636;2023-01-25T22:14:33;0.00;65.30
9425;DHT22;17139;52.140;11.636;2023-01-25T22:17:02;-0.10;65.50
9425;DHT22;17139;52.140;11.636;2023-01-25T22:19:30;0.00;65.60
9425;DHT22;17139;52.140;11.636;2023-01-25T22:21:57;-0.10;65.50
9425;DHT22;17139;52.140;11.636;2023-01-25T22:24:26;-0.20;65.50
9425;DHT22;17139;52.140;11.636;2023-01-25T22:26:58;-0.20;65.50
9425;DHT22;17139;52.140;11.636;2023-01-25T22:29:31;-0.20;65.70
9425;DHT22;17139;52.140;11.636;2023-01-25T22:31:58;-0.30;65.70
9425;DHT22;17139;52.140;11.636;2023-01-25T22:34:26;-0.40;65.70
9425;DHT22;17139;52.140;11.636;2023-01-25T22:36:54;-0.10;65.50
9425;DHT22;17139;52.140;11.636;2023-01-25T22:39:21;-0.10;65.00
9425;DHT22;17139;52.140;11.636;2023-01-25T22:41:50;-0.10;65.30
9425;DHT22;17139;52.140;11.636;2023-01-25T22:44:18;-0.20;65.50
9425;DHT22;17139;52.140;11.636;2023-01-25T22:46:46;-0.20;65.50
9425;DHT22;17139;52.140;11.636;2023-01-25T22:49:15;-0.20;65.70
9425;DHT22;17139;52.140;11.636;2023-01-25T22:51:42;-0.20;65.70
9425;DHT22;17139;52.140;11.636;2023-01-25T22:54:09;-0.30;65.60
9425;DHT22;17139;52.140;11.636;2023-01-25T22:56:37;-0.30;65.60
9425;DHT22;17139;52.140;11.636;2023-01-25T22:59:04;-0.30;65.80
9425;DHT22;17139;52.140;11.636;2023-01-25T23:01:33;-0.30;65.90
9425;DHT22;17139;52.140;11.636;2023-01-25T23:04:02;-0.30;65.90
9425;DHT22;17139;52.140;11.636;2023-01-25T23:06:32;-0.30;65.80
9425;DHT22;17139;52.140;11.636;2023-01-25T23:09:02;-0.30;65.80
9425;DHT22;17139;52.140;11.636;2023-01-25T23:11:31;-0.40;65.70
9425;DHT22;17139;52.140;11.636;2023-01-25T23:14:03;-0.40;65.70
9425;DHT22;17139;52.140;11.636;2023-01-25T23:16:48;-0.20;65.60
9425;DHT22;17139;52.140;11.636;2023-01-25T23:19:17;-0.20;65.20
9425;DHT22;17139;52.140;11.636;2023-01-25T23:21:43;-0.30;65.40
9425;DHT22;17139;52.140;11.636;2023-01-25T23:24:10;-0.40;65.60
9425;DHT22;17139;52.140;11.636;2023-01-25T23:26:37;-0.40;65.70
9425;DHT22;17139;52.140;11.636;2023-01-25T23:29:11;-0.40;65.80
9425;DHT22;17139;52.140;11.636;2023-01-25T23:31:39;-0.40;65.90
9425;DHT22;17139;52.140;11.636;2023-01-25T23:34:06;-0.40;65.90
9425;DHT22;17139;52.140;11.636;2023-01-25T23:36:35;-0.50;65.80
9425;DHT22;17139;52.140;11.636;2023-01-25T23:39:03;-0.40;66.00
9425;DHT22;17139;52.140;11.636;2023-01-25T23:41:30;-0.40;66.00
9425;DHT22;17139;52.140;11.636;2023-01-25T23:43:57;-0.40;65.90
9425;DHT22;17139;52.140;11.636;2023-01-25T23:46:25;-0.40;65.80
9425;DHT22;17139;52.140;11.636;2023-01-25T23:48:53;-0.30;66.50
9425;DHT22;17139;52.140;11.636;2023-01-25T23:51:20;-0.30;65.70
9425;DHT22;17139;52.140;11.636;2023-01-25T23:53:48;-0.30;65.70
9425;DHT22;17139;52.140;11.636;2023-01-25T23:56:19;-0.20;65.60
9425;DHT22;17139;52.140;11.636;2023-01-25T23:58:47;-0.20;65.40
